sensor_id;sensor_type;location;lat;lon;timestamp;P1;durP1;ratioP1;P2;durP2;ratioP2
45476;SDS011;31958;51.756;-2.556;2024-01-25T00:01:58;38.17;;;6.07;;
45476;SDS011;31958;51.756;-2.556;2024-01-25T00:04:24;42.08;;;10.60;;
45476;SDS011;31958;51.756;-2.556;2024-01-25T00:06:49;32.28;;;8.52;;
45476;SDS011;31958;51.756;-2.556;2024-01-25T00:09:14;30.38;;;9.02;;
45476;SDS011;31958;51.756;-2.556;2024-01-25T00:11:39;31.48;;;8.73;;
45476;SDS011;31958;51.756;-2.556;2024-01-25T00:14:05;26.80;;;8.82;;
45476;SDS011;31958;51.756;-2.556;2024-01-25T00:16:30;29.42;;;7.68;;
45476;SDS011;31958;51.756;-2.556;2024-01-25T00:18:55;34.58;;;8.60;;
45476;SDS011;31958;51.756;-2.556;2024-01-25T00:21:21;31.00;;;8.30;;
45476;SDS011;31958;51.756;-2.556;2024-01-25T00:23:46;35.13;;;7.97;;
45476;SDS011;31958;51.756;-2.556;2024-01-25T00:26:12;39.03;;;8.60;;
45476;SDS011;31958;51.756;-2.556;2024-01-25T00:28:37;27.73;;;8.52;;
45476;SDS011;31958;51.756;-2.556;2024-01-25T00:31:03;31.20;;;9.00;;
45476;SDS011;31958;51.756;-2.556;2024-01-25T00:33:28;34.97;;;7.40;;
45476;SDS011;31958;51.756;-2.556;2024-01-25T00:35:54;34.83;;;8.25;;
45476;SDS011;31958;51.756;-2.556;2024-01-25T00:38:19;41.72;;;8.23;;
45476;SDS011;31958;51.756;-2.556;2024-01-25T00:40:45;30.55;;;7.80;;
45476;SDS011;31958;51.756;-2.556;2024-01-25T00:43:10;29.30;;;10.25;;
45476;SDS011;31958;51.756;-2.556;2024-01-25T00:45:36;46.00;;;11.88;;
45476;SDS011;31958;51.756;-2.556;2024-01-25T00:48:02;44.03;;;10.90;;
45476;SDS011;31958;51.756;-2.556;2024-01-25T00:50:27;51.15;;;13.45;;
45476;SDS011;31958;51.756;-2.556;2024-01-25T00:52:53;35.58;;;11.68;;
45476;SDS011;31958;51.756;-2.556;2024-01-25T00:55:18;33.95;;;9.65;;
45476;SDS011;31958;51.756;-2.556;2024-01-25T00:57:44;41.03;;;10.35;;
45476;SDS011;31958;51.756;-2.556;2024-01-25T01:00:10;39.92;;;11.00;;
45476;SDS011;31958;51.756;-2.556;2024-01-25T01:02:39;38.17;;;9.70;;
45476;SDS011;31958;51.756;-2.556;2024-01-25T01:05:08;43.92;;;10.18;;
45476;SDS011;31958;51.756;-2.556;2024-01-25T01:07:34;43.63;;;11.50;;
45476;SDS011;31958;51.756;-2.556;2024-01-25T01:09:59;29.80;;;9.70;;
45476;SDS011;31958;51.756;-2.556;2024-01-25T01:12:24;41.70;;;9.77;;
45476;SDS011;31958;51.756;-2.556;2024-01-25T01:14:50;37.42;;;9.93;;
45476;SDS011;31958;51.756;-2.556;2024-01-25T01:17:15;48.65;;;10.32;;
45476;SDS011;31958;51.756;-2.556;2024-01-25T01:19:40;33.17;;;9.82;;
45476;SDS011;31958;51.756;-2.556;2024-01-25T01:22:06;42.95;;;10.70;;
45476;SDS011;31958;51.756;-2.556;2024-01-25T01:24:31;32.33;;;8.50;;
45476;SDS011;31958;51.756;-2.556;2024-01-25T01:26:56;34.58;;;9.15;;
45476;SDS011;31958;51.756;-2.556;2024-01-25T01:29:22;37.92;;;8.73;;
45476;SDS011;31958;51.756;-2.556;2024-01-25T01:31:47;36.85;;;7.70;;
45476;SDS011;31958;51.756;-2.556;2024-01-25T01:34:12;28.25;;;7.07;;
45476;SDS011;31958;51.756;-2.556;2024-01-25T01:36:38;30.70;;;6.15;;
45476;SDS011;31958;51.756;-2.556;2024-01-25T01:39:04;28.38;;;6.43;;
45476;SDS011;31958;51.756;-2.556;2024-01-25T01:41:30;29.98;;;5.95;;
45476;SDS011;31958;51.756;-2.556;2024-01-25T01:43:56;27.98;;;5.97;;
45476;SDS011;31958;51.756;-2.556;2024-01-25T01:49:07;35.38;;;5.35;;
45476;SDS011;31958;51.756;-2.556;2024-01-25T01:51:36;21.95;;;5.05;;
45476;SDS011;31958;51.756;-2.556;2024-01-25T01:54:01;19.58;;;5.13;;
45476;SDS011;31958;51.756;-2.556;2024-01-25T01:56:30;33.20;;;6.15;;
45476;SDS011;31958;51.756;-2.556;2024-01-25T01:59:00;31.73;;;5.38;;
45476;SDS011;31958;51.756;-2.556;2024-01-25T02:01:26;33.03;;;6.50;;
45476;SDS011;31958;51.756;-2.556;2024-01-25T02:03:52;23.15;;;7.07;;
45476;SDS011;31958;51.756;-2.556;2024-01-25T02:06:21;29.58;;;7.63;;
45476;SDS011;31958;51.756;-2.556;2024-01-25T02:08:47;27.10;;;8.68;;
45476;SDS011;31958;51.756;-2.556;2024-01-25T02:11:13;46.53;;;10.90;;
45476;SDS011;31958;51.756;-2.556;2024-01-25T02:13:39;43.38;;;11.68;;
45476;SDS011;31958;51.756;-2.556;2024-01-25T02:16:04;48.65;;;13.73;;
45476;SDS011;31958;51.756;-2.556;2024-01-25T02:18:30;35.72;;;11.32;;
45476;SDS011;31958;51.756;-2.556;2024-01-25T02:20:56;44.33;;;10.57;;
45476;SDS011;31958;51.756;-2.556;2024-01-25T02:23:21;34.45;;;9.23;;
45476;SDS011;31958;51.756;-2.556;2024-01-25T02:25:46;31.42;;;10.15;;
45476;SDS011;31958;51.756;-2.556;2024-01-25T02:28:12;38.70;;;9.20;;
45476;SDS011;31958;51.756;-2.556;2024-01-25T02:30:37;38.03;;;9.95;;
45476;SDS011;31958;51.756;-2.556;2024-01-25T02:33:02;39.22;;;10.13;;
45476;SDS011;31958;51.756;-2.556;2024-01-25T02:35:28;29.92;;;10.30;;
45476;SDS011;31958;51.756;-2.556;2024-01-25T02:37:53;29.38;;;9.73;;
45476;SDS011;31958;51.756;-2.556;2024-01-25T02:40:18;39.25;;;10.48;;
45476;SDS011;31958;51.756;-2.556;2024-01-25T02:42:44;38.67;;;10.40;;
45476;SDS011;31958;51.756;-2.556;2024-01-25T02:45:09;31.05;;;10.25;;
45476;SDS011;31958;51.756;-2.556;2024-01-25T02:47:34;35.95;;;10.00;;
45476;SDS011;31958;51.756;-2.556;2024-01-25T02:50:00;33.67;;;8.98;;
45476;SDS011;31958;51.756;-2.556;2024-01-25T02:52:25;27.98;;;8.23;;
45476;SDS011;31958;51.756;-2.556;2024-01-25T02:54:50;36.20;;;6.97;;
45476;SDS011;31958;51.756;-2.556;2024-01-25T02:57:16;32.63;;;5.82;;
45476;SDS011;31958;51.756;-2.556;2024-01-25T02:59:41;22.20;;;5.60;;
45476;SDS011;31958;51.756;-2.556;2024-01-25T03:02:07;39.15;;;6.85;;
45476;SDS011;31958;51.756;-2.556;2024-01-25T03:04:32;26.20;;;6.03;;
45476;SDS011;31958;51.756;-2.556;2024-01-25T03:06:57;46.40;;;7.78;;
45476;SDS011;31958;51.756;-2.556;2024-01-25T03:09:23;30.05;;;5.13;;
45476;SDS011;31958;51.756;-2.556;2024-01-25T03:11:48;40.20;;;6.07;;
45476;SDS011;31958;51.756;-2.556;2024-01-25T03:14:14;28.95;;;4.95;;
45476;SDS011;31958;51.756;-2.556;2024-01-25T03:16:39;29.42;;;5.22;;
45476;SDS011;31958;51.756;-2.556;2024-01-25T03:19:05;17.23;;;3.40;;
45476;SDS011;31958;51.756;-2.556;2024-01-25T03:21:30;41.17;;;4.78;;
45476;SDS011;31958;51.756;-2.556;2024-01-25T03:23:55;26.10;;;4.40;;
45476;SDS011;31958;51.756;-2.556;2024-01-25T03:26:21;29.80;;;4.50;;
45476;SDS011;31958;51.756;-2.556;2024-01-25T03:28:46;32.30;;;4.63;;
45476;SDS011;31958;51.756;-2.556;2024-01-25T03:31:11;23.95;;;4.20;;
45476;SDS011;31958;51.756;-2.556;2024-01-25T03:33:37;15.38;;;3.75;;
45476;SDS011;31958;51.756;-2.556;2024-01-25T03:36:02;23.73;;;4.57;;
45476;SDS011;31958;51.756;-2.556;2024-01-25T03:38:28;19.88;;;5.07;;
45476;SDS011;31958;51.756;-2.556;2024-01-25T03:40:54;26.67;;;4.63;;
45476;SDS011;31958;51.756;-2.556;2024-01-25T03:43:21;26.02;;;4.50;;
45476;SDS011;31958;51.756;-2.556;2024-01-25T03:45:48;19.98;;;4.25;;
45476;SDS011;31958;51.756;-2.556;2024-01-25T03:48:14;27.80;;;5.18;;
45476;SDS011;31958;51.756;-2.556;2024-01-25T03:50:40;26.40;;;4.47;;
45476;SDS011;31958;51.756;-2.556;2024-01-25T03:53:05;48.05;;;5.18;;
45476;SDS011;31958;51.756;-2.556;2024-01-25T03:55:31;27.60;;;4.10;;
45476;SDS011;31958;51.756;-2.556;2024-01-25T03:57:57;45.33;;;4.90;;
45476;SDS011;31958;51.756;-2.556;2024-01-25T04:00:22;38.17;;;5.05;;
45476;SDS011;31958;51.756;-2.556;2024-01-25T04:02:48;42.92;;;5.43;;
45476;SDS011;31958;51.756;-2.556;2024-01-25T04:05:13;32.65;;;4.82;;
45476;SDS011;31958;51.756;-2.556;2024-01-25T04:07:39;39.67;;;5.20;;
45476;SDS011;31958;51.756;-2.556;2024-01-25T04:10:05;38.80;;;4.85;;
45476;SDS011;31958;51.756;-2.556;2024-01-25T04:12:30;33.45;;;3.90;;
45476;SDS011;31958;51.756;-2.556;2024-01-25T04:14:57;36.50;;;4.60;;
45476;SDS011;31958;51.756;-2.556;2024-01-25T04:17:22;38.60;;;4.30;;
45476;SDS011;31958;51.756;-2.556;2024-01-25T04:19:48;32.05;;;4.65;;
45476;SDS011;31958;51.756;-2.556;2024-01-25T04:22:13;32.88;;;4.03;;
45476;SDS011;31958;51.756;-2.556;2024-01-25T04:24:38;27.73;;;4.10;;
45476;SDS011;31958;51.756;-2.556;2024-01-25T04:27:04;12.77;;;2.80;;
45476;SDS011;31958;51.756;-2.556;2024-01-25T04:29:30;16.20;;;2.50;;
45476;SDS011;31958;51.756;-2.556;2024-01-25T04:31:55;28.40;;;3.55;;
45476;SDS011;31958;51.756;-2.556;2024-01-25T04:34:21;22.08;;;2.97;;
45476;SDS011;31958;51.756;-2.556;2024-01-25T04:36:46;16.90;;;2.65;;
45476;SDS011;31958;51.756;-2.556;2024-01-25T04:39:12;15.15;;;3.88;;
45476;SDS011;31958;51.756;-2.556;2024-01-25T04:41:37;16.23;;;2.97;;
45476;SDS011;31958;51.756;-2.556;2024-01-25T04:44:02;22.75;;;3.53;;
45476;SDS011;31958;51.756;-2.556;2024-01-25T04:46:28;9.00;;;2.45;;
45476;SDS011;31958;51.756;-2.556;2024-01-25T04:48:53;10.45;;;2.60;;
45476;SDS011;31958;51.756;-2.556;2024-01-25T04:51:19;6.95;;;2.85;;
45476;SDS011;31958;51.756;-2.556;2024-01-25T04:53:47;6.53;;;3.13;;
45476;SDS011;31958;51.756;-2.556;2024-01-25T04:56:13;19.58;;;3.25;;
45476;SDS011;31958;51.756;-2.556;2024-01-25T04:58:38;7.88;;;2.50;;
45476;SDS011;31958;51.756;-2.556;2024-01-25T05:01:04;14.35;;;2.72;;
45476;SDS011;31958;51.756;-2.556;2024-01-25T05:03:31;11.98;;;2.55;;
45476;SDS011;31958;51.756;-2.556;2024-01-25T05:05:57;15.27;;;2.83;;
45476;SDS011;31958;51.756;-2.556;2024-01-25T05:08:22;19.23;;;3.50;;
45476;SDS011;31958;51.756;-2.556;2024-01-25T05:10:48;20.95;;;3.33;;
45476;SDS011;31958;51.756;-2.556;2024-01-25T05:13:14;23.33;;;4.28;;
45476;SDS011;31958;51.756;-2.556;2024-01-25T05:15:39;16.05;;;3.17;;
45476;SDS011;31958;51.756;-2.556;2024-01-25T05:18:04;17.75;;;3.35;;
45476;SDS011;31958;51.756;-2.556;2024-01-25T05:20:30;19.55;;;3.20;;
45476;SDS011;31958;51.756;-2.556;2024-01-25T05:23:01;18.88;;;4.05;;
45476;SDS011;31958;51.756;-2.556;2024-01-25T05:25:28;35.30;;;4.15;;
45476;SDS011;31958;51.756;-2.556;2024-01-25T05:27:54;18.25;;;3.22;;
45476;SDS011;31958;51.756;-2.556;2024-01-25T05:30:20;17.60;;;3.38;;
45476;SDS011;31958;51.756;-2.556;2024-01-25T05:32:46;24.40;;;2.83;;
45476;SDS011;31958;51.756;-2.556;2024-01-25T05:35:13;13.65;;;3.03;;
45476;SDS011;31958;51.756;-2.556;2024-01-25T05:37:39;17.15;;;3.30;;
45476;SDS011;31958;51.756;-2.556;2024-01-25T05:40:04;15.23;;;2.70;;
45476;SDS011;31958;51.756;-2.556;2024-01-25T05:42:30;15.88;;;3.00;;
45476;SDS011;31958;51.756;-2.556;2024-01-25T05:44:55;11.50;;;2.85;;
45476;SDS011;31958;51.756;-2.556;2024-01-25T05:47:21;11.57;;;2.67;;
45476;SDS011;31958;51.756;-2.556;2024-01-25T05:49:46;11.95;;;3.58;;
45476;SDS011;31958;51.756;-2.556;2024-01-25T05:52:12;19.65;;;2.80;;
45476;SDS011;31958;51.756;-2.556;2024-01-25T05:54:37;16.27;;;3.15;;
45476;SDS011;31958;51.756;-2.556;2024-01-25T05:57:02;19.80;;;3.42;;
45476;SDS011;31958;51.756;-2.556;2024-01-25T05:59:29;12.93;;;3.53;;
45476;SDS011;31958;51.756;-2.556;2024-01-25T06:01:54;12.90;;;3.58;;
45476;SDS011;31958;51.756;-2.556;2024-01-25T06:04:20;15.88;;;3.97;;
45476;SDS011;31958;51.756;-2.556;2024-01-25T06:06:45;14.18;;;3.42;;
45476;SDS011;31958;51.756;-2.556;2024-01-25T06:09:10;12.38;;;3.80;;
45476;SDS011;31958;51.756;-2.556;2024-01-25T06:11:36;11.30;;;3.60;;
45476;SDS011;31958;51.756;-2.556;2024-01-25T06:14:02;17.17;;;4.15;;
45476;SDS011;31958;51.756;-2.556;2024-01-25T06:16:29;14.27;;;4.47;;
45476;SDS011;31958;51.756;-2.556;2024-01-25T06:18:55;10.70;;;3.55;;
45476;SDS011;31958;51.756;-2.556;2024-01-25T06:21:20;12.82;;;3.55;;
45476;SDS011;31958;51.756;-2.556;2024-01-25T06:23:45;8.43;;;3.60;;
45476;SDS011;31958;51.756;-2.556;2024-01-25T06:26:11;9.90;;;3.50;;
45476;SDS011;31958;51.756;-2.556;2024-01-25T06:28:36;18.73;;;3.70;;
45476;SDS011;31958;51.756;-2.556;2024-01-25T06:31:01;10.60;;;2.65;;
45476;SDS011;31958;51.756;-2.556;2024-01-25T06:33:27;6.65;;;2.65;;
45476;SDS011;31958;51.756;-2.556;2024-01-25T06:35:53;12.40;;;4.45;;
45476;SDS011;31958;51.756;-2.556;2024-01-25T06:38:19;9.65;;;3.85;;
45476;SDS011;31958;51.756;-2.556;2024-01-25T06:40:44;13.45;;;3.85;;
45476;SDS011;31958;51.756;-2.556;2024-01-25T06:43:09;6.30;;;3.50;;
45476;SDS011;31958;51.756;-2.556;2024-01-25T06:45:36;18.33;;;6.32;;
45476;SDS011;31958;51.756;-2.556;2024-01-25T06:48:02;15.88;;;7.22;;
45476;SDS011;31958;51.756;-2.556;2024-01-25T06:50:27;15.38;;;6.32;;
45476;SDS011;31958;51.756;-2.556;2024-01-25T06:52:53;13.35;;;4.88;;
45476;SDS011;31958;51.756;-2.556;2024-01-25T06:55:19;9.35;;;3.50;;
45476;SDS011;31958;51.756;-2.556;2024-01-25T06:57:45;8.07;;;3.30;;
45476;SDS011;31958;51.756;-2.556;2024-01-25T07:00:10;6.57;;;3.83;;
45476;SDS011;31958;51.756;-2.556;2024-01-25T07:02:38;12.85;;;3.72;;
45476;SDS011;31958;51.756;-2.556;2024-01-25T07:05:03;14.10;;;4.22;;
45476;SDS011;31958;51.756;-2.556;2024-01-25T07:07:29;5.75;;;3.03;;
45476;SDS011;31958;51.756;-2.556;2024-01-25T07:09:57;6.72;;;3.55;;
45476;SDS011;31958;51.756;-2.556;2024-01-25T07:12:22;6.57;;;3.38;;
45476;SDS011;31958;51.756;-2.556;2024-01-25T07:14:48;13.68;;;3.78;;
45476;SDS011;31958;51.756;-2.556;2024-01-25T07:17:13;11.38;;;4.47;;
45476;SDS011;31958;51.756;-2.556;2024-01-25T07:19:39;9.10;;;3.60;;
45476;SDS011;31958;51.756;-2.556;2024-01-25T07:22:04;7.05;;;3.53;;
45476;SDS011;31958;51.756;-2.556;2024-01-25T07:24:30;10.00;;;3.80;;
45476;SDS011;31958;51.756;-2.556;2024-01-25T07:26:56;11.10;;;4.18;;
45476;SDS011;31958;51.756;-2.556;2024-01-25T07:29:22;9.85;;;4.47;;
45476;SDS011;31958;51.756;-2.556;2024-01-25T07:31:47;10.25;;;4.20;;
45476;SDS011;31958;51.756;-2.556;2024-01-25T07:34:13;12.57;;;4.47;;
45476;SDS011;31958;51.756;-2.556;2024-01-25T07:36:38;9.18;;;3.83;;
45476;SDS011;31958;51.756;-2.556;2024-01-25T07:39:03;8.77;;;3.92;;
45476;SDS011;31958;51.756;-2.556;2024-01-25T07:41:29;10.57;;;4.78;;
45476;SDS011;31958;51.756;-2.556;2024-01-25T07:43:54;6.93;;;4.32;;
45476;SDS011;31958;51.756;-2.556;2024-01-25T07:46:21;11.60;;;4.80;;
45476;SDS011;31958;51.756;-2.556;2024-01-25T07:48:47;7.03;;;4.40;;
45476;SDS011;31958;51.756;-2.556;2024-01-25T07:51:13;11.43;;;5.00;;
45476;SDS011;31958;51.756;-2.556;2024-01-25T07:53:38;15.75;;;4.65;;
45476;SDS011;31958;51.756;-2.556;2024-01-25T07:56:06;8.70;;;4.18;;
45476;SDS011;31958;51.756;-2.556;2024-01-25T07:58:32;10.32;;;3.90;;
45476;SDS011;31958;51.756;-2.556;2024-01-25T08:00:58;9.30;;;3.72;;
45476;SDS011;31958;51.756;-2.556;2024-01-25T08:03:23;10.55;;;3.45;;
45476;SDS011;31958;51.756;-2.556;2024-01-25T08:05:48;6.65;;;3.67;;
45476;SDS011;31958;51.756;-2.556;2024-01-25T08:08:14;12.88;;;4.88;;
45476;SDS011;31958;51.756;-2.556;2024-01-25T08:10:39;7.20;;;4.20;;
45476;SDS011;31958;51.756;-2.556;2024-01-25T08:13:04;7.97;;;3.95;;
45476;SDS011;31958;51.756;-2.556;2024-01-25T08:15:30;11.20;;;5.85;;
45476;SDS011;31958;51.756;-2.556;2024-01-25T08:17:55;12.80;;;5.32;;
45476;SDS011;31958;51.756;-2.556;2024-01-25T08:20:20;6.97;;;3.65;;
45476;SDS011;31958;51.756;-2.556;2024-01-25T08:22:46;9.07;;;3.97;;
45476;SDS011;31958;51.756;-2.556;2024-01-25T08:25:11;7.70;;;3.63;;
45476;SDS011;31958;51.756;-2.556;2024-01-25T08:27:38;4.55;;;2.33;;
45476;SDS011;31958;51.756;-2.556;2024-01-25T08:30:04;4.72;;;3.00;;
45476;SDS011;31958;51.756;-2.556;2024-01-25T08:32:30;7.13;;;2.80;;
45476;SDS011;31958;51.756;-2.556;2024-01-25T08:34:56;6.38;;;2.40;;
45476;SDS011;31958;51.756;-2.556;2024-01-25T08:37:21;4.75;;;2.30;;
45476;SDS011;31958;51.756;-2.556;2024-01-25T08:39:46;7.53;;;2.35;;
45476;SDS011;31958;51.756;-2.556;2024-01-25T08:42:16;4.50;;;2.47;;
45476;SDS011;31958;51.756;-2.556;2024-01-25T08:44:42;6.70;;;2.70;;
45476;SDS011;31958;51.756;-2.556;2024-01-25T08:47:13;4.32;;;2.45;;
45476;SDS011;31958;51.756;-2.556;2024-01-25T08:49:39;6.53;;;2.20;;
45476;SDS011;31958;51.756;-2.556;2024-01-25T08:52:04;4.45;;;1.95;;
45476;SDS011;31958;51.756;-2.556;2024-01-25T08:54:31;6.22;;;2.20;;
45476;SDS011;31958;51.756;-2.556;2024-01-25T08:56:57;9.35;;;2.38;;
45476;SDS011;31958;51.756;-2.556;2024-01-25T08:59:22;10.70;;;3.28;;
45476;SDS011;31958;51.756;-2.556;2024-01-25T09:01:47;4.70;;;2.30;;
45476;SDS011;31958;51.756;-2.556;2024-01-25T09:04:13;6.57;;;2.40;;
45476;SDS011;31958;51.756;-2.556;2024-01-25T09:06:38;8.32;;;2.35;;
45476;SDS011;31958;51.756;-2.556;2024-01-25T09:09:04;5.28;;;1.70;;
45476;SDS011;31958;51.756;-2.556;2024-01-25T09:11:30;9.05;;;2.08;;
45476;SDS011;31958;51.756;-2.556;2024-01-25T09:13:55;5.22;;;2.30;;
45476;SDS011;31958;51.756;-2.556;2024-01-25T09:16:21;6.53;;;1.65;;
45476;SDS011;31958;51.756;-2.556;2024-01-25T09:18:47;8.18;;;1.80;;
45476;SDS011;31958;51.756;-2.556;2024-01-25T09:21:12;5.90;;;1.98;;
45476;SDS011;31958;51.756;-2.556;2024-01-25T09:23:38;4.90;;;1.75;;
45476;SDS011;31958;51.756;-2.556;2024-01-25T09:26:04;4.78;;;1.70;;
45476;SDS011;31958;51.756;-2.556;2024-01-25T09:28:30;5.63;;;1.63;;
45476;SDS011;31958;51.756;-2.556;2024-01-25T09:30:55;4.10;;;1.60;;
45476;SDS011;31958;51.756;-2.556;2024-01-25T09:33:20;5.30;;;2.03;;
45476;SDS011;31958;51.756;-2.556;2024-01-25T09:35:46;6.22;;;2.55;;
45476;SDS011;31958;51.756;-2.556;2024-01-25T09:38:12;3.58;;;1.50;;
45476;SDS011;31958;51.756;-2.556;2024-01-25T09:40:37;5.75;;;1.85;;
45476;SDS011;31958;51.756;-2.556;2024-01-25T09:43:03;4.13;;;1.90;;
45476;SDS011;31958;51.756;-2.556;2024-01-25T09:45:28;5.35;;;1.52;;
45476;SDS011;31958;51.756;-2.556;2024-01-25T09:47:56;3.45;;;1.50;;
45476;SDS011;31958;51.756;-2.556;2024-01-25T09:50:21;3.30;;;1.35;;
45476;SDS011;31958;51.756;-2.556;2024-01-25T09:52:49;5.10;;;1.50;;
45476;SDS011;31958;51.756;-2.556;2024-01-25T09:55:19;5.75;;;1.35;;
45476;SDS011;31958;51.756;-2.556;2024-01-25T09:57:49;3.75;;;1.45;;
45476;SDS011;31958;51.756;-2.556;2024-01-25T10:00:18;4.60;;;1.58;;
45476;SDS011;31958;51.756;-2.556;2024-01-25T10:02:46;6.45;;;1.83;;
45476;SDS011;31958;51.756;-2.556;2024-01-25T10:05:12;4.57;;;1.20;;
45476;SDS011;31958;51.756;-2.556;2024-01-25T10:07:41;2.70;;;0.85;;
45476;SDS011;31958;51.756;-2.556;2024-01-25T10:10:08;1.48;;;0.80;;
45476;SDS011;31958;51.756;-2.556;2024-01-25T10:12:34;2.35;;;0.77;;
45476;SDS011;31958;51.756;-2.556;2024-01-25T10:14:59;1.23;;;0.73;;
45476;SDS011;31958;51.756;-2.556;2024-01-25T10:17:25;1.80;;;0.80;;
45476;SDS011;31958;51.756;-2.556;2024-01-25T10:19:51;1.15;;;0.70;;
45476;SDS011;31958;51.756;-2.556;2024-01-25T10:22:16;2.38;;;0.88;;
45476;SDS011;31958;51.756;-2.556;2024-01-25T10:24:43;2.92;;;0.80;;
45476;SDS011;31958;51.756;-2.556;2024-01-25T10:27:08;2.78;;;1.42;;
45476;SDS011;31958;51.756;-2.556;2024-01-25T10:29:34;2.22;;;0.98;;
45476;SDS011;31958;51.756;-2.556;2024-01-25T10:31:59;2.58;;;1.05;;
45476;SDS011;31958;51.756;-2.556;2024-01-25T10:34:25;3.25;;;1.45;;
45476;SDS011;31958;51.756;-2.556;2024-01-25T10:36:51;7.70;;;1.52;;
45476;SDS011;31958;51.756;-2.556;2024-01-25T10:39:17;3.17;;;1.48;;
45476;SDS011;31958;51.756;-2.556;2024-01-25T10:41:43;3.65;;;1.50;;
45476;SDS011;31958;51.756;-2.556;2024-01-25T10:44:14;6.15;;;1.50;;
45476;SDS011;31958;51.756;-2.556;2024-01-25T10:46:40;7.57;;;1.75;;
45476;SDS011;31958;51.756;-2.556;2024-01-25T10:49:05;4.25;;;1.50;;
45476;SDS011;31958;51.756;-2.556;2024-01-25T10:51:32;10.40;;;1.95;;
45476;SDS011;31958;51.756;-2.556;2024-01-25T10:53:58;6.00;;;2.40;;
45476;SDS011;31958;51.756;-2.556;2024-01-25T10:56:24;3.88;;;1.50;;
45476;SDS011;31958;51.756;-2.556;2024-01-25T10:58:49;11.05;;;2.10;;
45476;SDS011;31958;51.756;-2.556;2024-01-25T11:01:16;11.32;;;1.70;;
45476;SDS011;31958;51.756;-2.556;2024-01-25T11:03:41;5.80;;;1.52;;
45476;SDS011;31958;51.756;-2.556;2024-01-25T11:06:08;7.88;;;2.20;;
45476;SDS011;31958;51.756;-2.556;2024-01-25T11:08:37;10.60;;;1.98;;
45476;SDS011;31958;51.756;-2.556;2024-01-25T11:11:05;8.85;;;2.03;;
45476;SDS011;31958;51.756;-2.556;2024-01-25T11:13:32;11.80;;;3.10;;
45476;SDS011;31958;51.756;-2.556;2024-01-25T11:15:57;5.38;;;1.58;;
45476;SDS011;31958;51.756;-2.556;2024-01-25T11:18:25;8.15;;;1.98;;
45476;SDS011;31958;51.756;-2.556;2024-01-25T11:20:53;4.47;;;1.55;;
45476;SDS011;31958;51.756;-2.556;2024-01-25T11:23:18;11.60;;;1.95;;
45476;SDS011;31958;51.756;-2.556;2024-01-25T11:25:44;12.10;;;1.88;;
45476;SDS011;31958;51.756;-2.556;2024-01-25T11:28:14;5.80;;;1.60;;
45476;SDS011;31958;51.756;-2.556;2024-01-25T11:30:44;9.30;;;1.85;;
45476;SDS011;31958;51.756;-2.556;2024-01-25T11:33:11;9.38;;;1.50;;
45476;SDS011;31958;51.756;-2.556;2024-01-25T11:35:36;10.40;;;1.70;;
45476;SDS011;31958;51.756;-2.556;2024-01-25T11:38:02;8.23;;;1.52;;
45476;SDS011;31958;51.756;-2.556;2024-01-25T11:40:28;6.40;;;1.60;;
45476;SDS011;31958;51.756;-2.556;2024-01-25T11:42:56;5.30;;;1.23;;
45476;SDS011;31958;51.756;-2.556;2024-01-25T11:45:22;6.13;;;1.63;;
45476;SDS011;31958;51.756;-2.556;2024-01-25T11:47:47;6.65;;;1.50;;
45476;SDS011;31958;51.756;-2.556;2024-01-25T11:50:13;5.13;;;1.63;;
45476;SDS011;31958;51.756;-2.556;2024-01-25T11:52:38;8.55;;;1.30;;
45476;SDS011;31958;51.756;-2.556;2024-01-25T11:55:04;4.35;;;1.02;;
45476;SDS011;31958;51.756;-2.556;2024-01-25T11:57:34;10.35;;;1.55;;
45476;SDS011;31958;51.756;-2.556;2024-01-25T12:00:02;5.25;;;1.17;;
45476;SDS011;31958;51.756;-2.556;2024-01-25T12:02:29;3.72;;;1.15;;
45476;SDS011;31958;51.756;-2.556;2024-01-25T12:04:56;3.35;;;1.30;;
45476;SDS011;31958;51.756;-2.556;2024-01-25T12:07:22;5.90;;;1.38;;
45476;SDS011;31958;51.756;-2.556;2024-01-25T12:10:05;10.93;;;3.50;;
45476;SDS011;31958;51.756;-2.556;2024-01-25T12:12:32;9.65;;;2.03;;
45476;SDS011;31958;51.756;-2.556;2024-01-25T12:14:58;9.15;;;1.45;;
45476;SDS011;31958;51.756;-2.556;2024-01-25T12:17:28;8.25;;;2.17;;
45476;SDS011;31958;51.756;-2.556;2024-01-25T12:19:57;9.27;;;2.03;;
45476;SDS011;31958;51.756;-2.556;2024-01-25T12:22:23;7.32;;;2.08;;
45476;SDS011;31958;51.756;-2.556;2024-01-25T12:24:50;10.18;;;2.22;;
45476;SDS011;31958;51.756;-2.556;2024-01-25T12:27:19;9.82;;;2.10;;
45476;SDS011;31958;51.756;-2.556;2024-01-25T12:29:46;7.50;;;1.77;;
45476;SDS011;31958;51.756;-2.556;2024-01-25T12:32:11;5.40;;;1.45;;
45476;SDS011;31958;51.756;-2.556;2024-01-25T12:34:37;6.82;;;1.45;;
45476;SDS011;31958;51.756;-2.556;2024-01-25T12:37:04;7.90;;;1.38;;
45476;SDS011;31958;51.756;-2.556;2024-01-25T12:39:29;6.55;;;1.50;;
45476;SDS011;31958;51.756;-2.556;2024-01-25T12:41:54;10.85;;;1.80;;
45476;SDS011;31958;51.756;-2.556;2024-01-25T12:44:20;8.70;;;1.60;;
45476;SDS011;31958;51.756;-2.556;2024-01-25T12:46:45;4.85;;;1.13;;
45476;SDS011;31958;51.756;-2.556;2024-01-25T12:49:10;4.18;;;1.33;;
45476;SDS011;31958;51.756;-2.556;2024-01-25T12:51:36;5.63;;;1.48;;
45476;SDS011;31958;51.756;-2.556;2024-01-25T12:54:01;7.70;;;2.15;;
45476;SDS011;31958;51.756;-2.556;2024-01-25T12:56:27;11.02;;;1.80;;
45476;SDS011;31958;51.756;-2.556;2024-01-25T12:58:52;6.20;;;1.70;;
45476;SDS011;31958;51.756;-2.556;2024-01-25T13:01:17;8.75;;;1.35;;
45476;SDS011;31958;51.756;-2.556;2024-01-25T13:03:43;5.47;;;1.40;;
45476;SDS011;31958;51.756;-2.556;2024-01-25T13:06:11;6.35;;;1.48;;
45476;SDS011;31958;51.756;-2.556;2024-01-25T13:08:36;11.35;;;1.80;;
45476;SDS011;31958;51.756;-2.556;2024-01-25T13:11:02;6.35;;;1.50;;
45476;SDS011;31958;51.756;-2.556;2024-01-25T13:13:27;5.53;;;1.40;;
45476;SDS011;31958;51.756;-2.556;2024-01-25T13:15:53;5.85;;;1.27;;
45476;SDS011;31958;51.756;-2.556;2024-01-25T13:18:18;6.57;;;1.45;;
45476;SDS011;31958;51.756;-2.556;2024-01-25T13:20:43;5.38;;;1.33;;
45476;SDS011;31958;51.756;-2.556;2024-01-25T13:23:09;3.58;;;1.10;;
45476;SDS011;31958;51.756;-2.556;2024-01-25T13:25:34;2.45;;;0.80;;
45476;SDS011;31958;51.756;-2.556;2024-01-25T13:27:59;2.75;;;0.95;;
45476;SDS011;31958;51.756;-2.556;2024-01-25T13:30:25;8.85;;;1.33;;
45476;SDS011;31958;51.756;-2.556;2024-01-25T13:32:50;5.13;;;0.90;;
45476;SDS011;31958;51.756;-2.556;2024-01-25T13:35:16;4.72;;;1.15;;
45476;SDS011;31958;51.756;-2.556;2024-01-25T13:37:41;3.05;;;0.82;;
45476;SDS011;31958;51.756;-2.556;2024-01-25T13:40:06;5.07;;;1.30;;
45476;SDS011;31958;51.756;-2.556;2024-01-25T13:42:32;3.60;;;1.05;;
45476;SDS011;31958;51.756;-2.556;2024-01-25T13:44:57;5.05;;;1.17;;
45476;SDS011;31958;51.756;-2.556;2024-01-25T13:47:23;4.63;;;1.30;;
45476;SDS011;31958;51.756;-2.556;2024-01-25T13:49:49;3.92;;;1.00;;
45476;SDS011;31958;51.756;-2.556;2024-01-25T13:52:18;4.20;;;1.10;;
45476;SDS011;31958;51.756;-2.556;2024-01-25T13:54:47;3.35;;;0.98;;
45476;SDS011;31958;51.756;-2.556;2024-01-25T13:57:15;5.53;;;1.38;;
45476;SDS011;31958;51.756;-2.556;2024-01-25T13:59:41;4.05;;;1.20;;
45476;SDS011;31958;51.756;-2.556;2024-01-25T14:02:06;4.35;;;1.63;;
45476;SDS011;31958;51.756;-2.556;2024-01-25T14:04:32;5.35;;;1.38;;
45476;SDS011;31958;51.756;-2.556;2024-01-25T14:06:57;2.42;;;1.00;;
45476;SDS011;31958;51.756;-2.556;2024-01-25T14:09:22;6.20;;;1.42;;
45476;SDS011;31958;51.756;-2.556;2024-01-25T14:11:48;6.40;;;1.17;;
45476;SDS011;31958;51.756;-2.556;2024-01-25T14:14:13;5.32;;;1.00;;
45476;SDS011;31958;51.756;-2.556;2024-01-25T14:16:38;4.00;;;0.90;;
45476;SDS011;31958;51.756;-2.556;2024-01-25T14:19:04;2.13;;;0.63;;
45476;SDS011;31958;51.756;-2.556;2024-01-25T14:21:30;7.00;;;1.33;;